createdAt,value
2023-09-08T00:03:22.858Z,23.19
2023-09-08T00:08:25.192Z,23.21
2023-09-08T00:13:26.603Z,23.18
2023-09-08T00:18:28.011Z,23.13
2023-09-08T00:23:29.396Z,23.12
2023-09-08T00:28:30.725Z,23.10
2023-09-08T00:33:32.168Z,23.01
2023-09-08T00:38:34.003Z,22.95
2023-09-08T00:43:35.570Z,23.00
2023-09-08T00:48:38.757Z,22.98
2023-09-08T00:53:40.118Z,22.91
2023-09-08T00:58:41.824Z,22.86
2023-09-08T01:03:44.521Z,22.75
2023-09-08T01:08:46.375Z,22.74
2023-09-08T01:13:47.853Z,22.67
2023-09-08T01:18:50.591Z,22.62
2023-09-08T01:24:22.574Z,22.63
2023-09-08T01:29:26.611Z,22.57
2023-09-08T01:34:28.241Z,22.53
2023-09-08T01:39:29.670Z,22.28
2023-09-08T01:44:31.251Z,22.44
2023-09-08T01:49:32.609Z,22.35
2023-09-08T01:54:34.004Z,22.30
2023-09-08T01:59:35.769Z,22.21
2023-09-08T02:04:37.391Z,22.22
2023-09-08T02:09:39.041Z,22.21
2023-09-08T02:14:40.408Z,22.15
2023-09-08T02:19:41.975Z,22.10
2023-09-08T02:24:43.384Z,22.07
2023-09-08T02:29:47.072Z,22.01
2023-09-08T02:34:49.729Z,21.98
2023-09-08T02:39:51.113Z,21.94
2023-09-08T02:44:52.979Z,21.87
2023-09-08T02:49:54.303Z,21.85
2023-09-08T02:54:55.717Z,21.83
2023-09-08T02:59:57.603Z,21.80
2023-09-08T03:04:59.091Z,21.75
2023-09-08T03:10:00.705Z,21.70
2023-09-08T03:15:05.382Z,21.68
2023-09-08T03:20:08.769Z,21.66
2023-09-08T03:25:10.306Z,21.55
2023-09-08T03:30:12.048Z,21.60
2023-09-08T03:35:13.386Z,21.54
2023-09-08T03:40:14.950Z,21.60
2023-09-08T03:45:16.597Z,21.39
2023-09-08T03:50:18.021Z,21.45
2023-09-08T03:55:19.909Z,21.49
2023-09-08T04:00:23.205Z,21.37
2023-09-08T04:05:24.725Z,21.38
2023-09-08T04:10:26.529Z,21.36
2023-09-08T04:15:28.038Z,21.37
2023-09-08T04:20:29.395Z,21.26
2023-09-08T04:25:30.698Z,21.24
2023-09-08T04:30:32.119Z,21.26
2023-09-08T04:35:33.606Z,21.17
2023-09-08T04:40:34.955Z,21.22
2023-09-08T04:45:36.320Z,21.19
2023-09-08T04:50:37.691Z,21.04
2023-09-08T04:55:39.012Z,21.13
2023-09-08T05:00:43.547Z,21.11
2023-09-08T05:05:46.028Z,21.02
2023-09-08T05:10:47.477Z,20.96
2023-09-08T05:15:49.763Z,20.97
2023-09-08T05:20:51.283Z,20.96
2023-09-08T05:25:52.601Z,21.05
2023-09-08T05:30:54.893Z,21.03
2023-09-08T05:35:56.977Z,20.98
2023-09-08T05:40:58.453Z,21.02
2023-09-08T05:45:59.935Z,20.98
2023-09-08T05:51:03.264Z,20.96
2023-09-08T05:56:04.866Z,21.06
2023-09-08T06:01:06.287Z,20.95
2023-09-08T06:06:07.706Z,21.18
2023-09-08T06:11:09.128Z,21.29
2023-09-08T06:16:10.586Z,21.28
2023-09-08T06:21:12.010Z,21.46
2023-09-08T06:26:13.395Z,21.70
2023-09-08T06:31:15.795Z,21.80
2023-09-08T06:36:17.396Z,22.00
2023-09-08T06:41:19.024Z,22.14
2023-09-08T06:46:20.442Z,22.22
2023-09-08T06:51:21.836Z,22.37
2023-09-08T06:56:23.537Z,22.48
2023-09-08T07:01:25.807Z,22.49
2023-09-08T07:06:27.221Z,22.53
2023-09-08T07:11:28.748Z,22.48
2023-09-08T07:16:39.654Z,22.73
2023-09-08T07:21:41.490Z,22.87
2023-09-08T07:26:43.902Z,22.99
2023-09-08T07:31:45.700Z,23.11
2023-09-08T07:36:47.135Z,23.31
2023-09-08T07:41:48.555Z,23.42
2023-09-08T07:46:52.399Z,23.63
2023-09-08T07:51:54.381Z,23.78
2023-09-08T07:56:55.850Z,24.00
2023-09-08T08:01:57.273Z,24.23
2023-09-08T08:06:59.021Z,24.29
2023-09-08T08:12:00.865Z,24.57
2023-09-08T08:17:02.419Z,24.65
2023-09-08T08:22:04.654Z,24.81
2023-09-08T08:27:06.118Z,24.98
2023-09-08T08:32:08.621Z,25.01
2023-09-08T08:37:12.545Z,25.16
2023-09-08T08:42:16.056Z,25.31
2023-09-08T08:47:20.435Z,25.51
2023-09-08T08:52:22.601Z,25.67
2023-09-08T08:57:24.458Z,25.84
2023-09-08T09:02:26.907Z,25.88
2023-09-08T09:07:28.703Z,26.18
2023-09-08T09:12:30.674Z,26.41
2023-09-08T09:17:36.363Z,26.72
2023-09-08T09:22:38.494Z,26.85
2023-09-08T09:27:42.160Z,27.02
2023-09-08T09:32:44.267Z,27.22
2023-09-08T09:37:48.725Z,27.33
2023-09-08T09:42:52.430Z,27.56
2023-09-08T09:47:53.946Z,27.63
2023-09-08T09:52:59.690Z,27.80
2023-09-08T09:58:05.349Z,27.97
2023-09-08T10:03:07.467Z,28.18
2023-09-08T10:08:09.382Z,28.42
2023-09-08T10:13:13.906Z,28.54
2023-09-08T10:18:20.661Z,28.88
2023-09-08T10:23:37.516Z,29.08
2023-09-08T10:28:40.750Z,29.19
2023-09-08T10:33:44.352Z,29.35
2023-09-08T10:38:48.732Z,29.49
2023-09-08T10:43:58.389Z,29.71
2023-09-08T10:49:09.011Z,30.01
2023-09-08T10:54:11.291Z,30.31
2023-09-08T10:59:13.132Z,30.48
2023-09-08T11:04:20.195Z,30.80
2023-09-08T11:09:22.413Z,31.02
2023-09-08T11:14:24.409Z,31.32
2023-09-08T11:19:25.871Z,31.47
2023-09-08T11:24:27.823Z,31.70
2023-09-08T11:29:30.186Z,31.93
2023-09-08T11:34:31.537Z,32.07
2023-09-08T11:39:37.378Z,32.36
2023-09-08T11:44:39.334Z,32.80
2023-09-08T11:49:42.159Z,33.21
2023-09-08T11:55:00.133Z,33.64
2023-09-08T12:00:06.835Z,34.09
2023-09-08T12:05:22.827Z,34.55
2023-09-08T12:10:26.324Z,34.79
2023-09-08T12:15:35.779Z,35.08
2023-09-08T12:20:41.265Z,35.30
2023-09-08T12:26:08.693Z,35.68
2023-09-08T12:31:14.890Z,36.12
2023-09-08T12:36:18.344Z,36.51
2023-09-08T12:41:20.786Z,36.16
2023-09-08T12:46:23.115Z,35.98
2023-09-08T12:51:25.430Z,36.05
2023-09-08T12:56:26.972Z,36.04
2023-09-08T13:01:29.812Z,35.73
2023-09-08T13:06:34.022Z,35.39
2023-09-08T13:11:35.468Z,35.30
2023-09-08T13:16:37.249Z,35.04
2023-09-08T13:21:38.911Z,34.92
2023-09-08T13:26:41.868Z,34.81
2023-09-08T13:31:43.778Z,34.73
2023-09-08T13:36:45.222Z,34.56
2023-09-08T13:41:57.698Z,34.23
2023-09-08T13:46:59.520Z,34.14
2023-09-08T13:52:02.545Z,33.92
2023-09-08T13:57:08.707Z,33.62
2023-09-08T14:02:37.940Z,33.40
2023-09-08T14:12:36.389Z,32.78
2023-09-08T14:17:37.926Z,32.50
2023-09-08T14:22:39.679Z,32.33
2023-09-08T14:27:41.265Z,32.03
2023-09-08T14:32:42.898Z,31.90
2023-09-08T14:37:44.633Z,31.81
2023-09-08T14:42:46.282Z,31.58
2023-09-08T14:47:47.823Z,31.47
2023-09-08T14:52:51.432Z,31.36
2023-09-08T14:57:52.919Z,31.00
2023-09-08T15:02:54.967Z,30.96
2023-09-08T15:07:56.353Z,30.88
2023-09-08T15:12:57.788Z,30.76
2023-09-08T15:17:59.931Z,30.69
2023-09-08T15:23:01.525Z,30.59
2023-09-08T15:28:03.070Z,30.46
2023-09-08T15:33:07.309Z,30.41
2023-09-08T15:38:08.929Z,30.26
2023-09-08T15:43:10.503Z,30.29
2023-09-08T15:48:13.751Z,30.21
2023-09-08T15:53:15.430Z,30.14
2023-09-08T15:58:17.021Z,30.07
2023-09-08T16:03:18.659Z,30.00
2023-09-08T16:08:21.002Z,29.90
2023-09-08T16:13:23.744Z,29.87
2023-09-08T16:18:26.195Z,29.81
2023-09-08T16:23:28.038Z,29.68
2023-09-08T16:28:29.638Z,29.63
2023-09-08T16:33:31.347Z,29.57
2023-09-08T16:38:35.853Z,29.50
2023-09-08T16:43:37.458Z,29.41
2023-09-08T16:48:39.047Z,29.33
2023-09-08T16:53:40.501Z,29.23
2023-09-08T16:58:42.108Z,29.22
2023-09-08T17:03:43.708Z,29.15
2023-09-08T17:08:45.333Z,29.04
2023-09-08T17:13:46.722Z,28.95
2023-09-08T17:18:48.303Z,28.80
2023-09-08T17:23:50.019Z,28.86
2023-09-08T17:28:51.922Z,28.78
2023-09-08T17:33:53.969Z,28.67
2023-09-08T17:38:55.892Z,28.62
2023-09-08T17:43:58.381Z,28.53
2023-09-08T17:48:59.770Z,28.44
2023-09-08T17:54:01.160Z,28.33
2023-09-08T17:59:02.631Z,28.24
2023-09-08T18:04:04.354Z,28.13
2023-09-08T18:09:05.991Z,28.07
2023-09-08T18:14:07.716Z,27.97
2023-09-08T18:19:09.363Z,27.82
2023-09-08T18:24:10.816Z,27.82
2023-09-08T18:29:12.607Z,27.75
2023-09-08T18:34:14.287Z,27.69
2023-09-08T18:39:16.372Z,27.62
2023-09-08T18:44:17.862Z,27.50
2023-09-08T18:49:22.980Z,27.45
2023-09-08T18:54:29.342Z,27.42
2023-09-08T18:59:30.936Z,27.32
2023-09-08T19:04:32.823Z,27.28
2023-09-08T19:09:34.543Z,27.22
2023-09-08T19:14:36.076Z,26.95
2023-09-08T19:19:37.538Z,27.10
2023-09-08T19:24:42.859Z,27.04
2023-09-08T19:29:49.044Z,26.96
2023-09-08T19:34:51.291Z,26.91
2023-09-08T19:39:52.816Z,26.87
2023-09-08T19:44:54.282Z,26.74
2023-09-08T19:49:56.087Z,26.70
2023-09-08T19:54:57.643Z,26.63
2023-09-08T19:59:59.022Z,26.48
2023-09-08T20:05:00.491Z,26.43
2023-09-08T20:10:02.174Z,26.37
2023-09-08T20:15:03.831Z,26.24
2023-09-08T20:20:06.121Z,26.21
2023-09-08T20:25:08.449Z,26.09
2023-09-08T20:30:10.467Z,26.07
2023-09-08T20:35:12.032Z,25.98
2023-09-08T20:40:13.479Z,25.84
2023-09-08T20:45:14.935Z,25.81
2023-09-08T20:50:16.741Z,25.81
2023-09-08T20:55:18.166Z,25.70
2023-09-08T21:00:19.897Z,25.67
2023-09-08T21:05:21.479Z,25.62
2023-09-08T21:10:22.973Z,25.58
2023-09-08T21:15:24.588Z,25.53
2023-09-08T21:20:26.181Z,25.40
2023-09-08T21:25:27.650Z,25.39
2023-09-08T21:30:29.257Z,25.34
2023-09-08T21:35:32.099Z,25.28
2023-09-08T21:40:33.499Z,25.23
2023-09-08T21:45:34.890Z,25.18
2023-09-08T21:50:36.323Z,25.15
2023-09-08T21:55:37.669Z,25.10
2023-09-08T22:00:39.102Z,25.01
2023-09-08T22:05:44.133Z,24.97
2023-09-08T22:10:45.593Z,24.89
2023-09-08T22:15:47.065Z,24.82
2023-09-08T22:20:55.095Z,24.76
2023-09-08T22:25:56.741Z,24.70
2023-09-08T22:30:58.255Z,24.61
2023-09-08T22:35:59.877Z,24.65
2023-09-08T22:41:02.150Z,24.57
2023-09-08T22:46:04.283Z,24.50
2023-09-08T22:51:05.693Z,24.43
2023-09-08T22:56:08.246Z,24.36
2023-09-08T23:01:10.021Z,24.29
2023-09-08T23:06:13.558Z,24.22
2023-09-08T23:11:15.348Z,24.19
2023-09-08T23:16:17.048Z,24.17
2023-09-08T23:21:18.530Z,24.12
2023-09-08T23:26:20.077Z,24.06
2023-09-08T23:31:22.356Z,23.99
2023-09-08T23:36:25.233Z,23.92
2023-09-08T23:41:26.875Z,23.88
2023-09-08T23:46:28.673Z,23.84
2023-09-08T23:51:30.402Z,23.80
2023-09-08T23:56:34.017Z,23.73
